Terminal Aerodrome Forecast
Issued by NWS

Home | Current Version | Previous Version | Text Only | Print | Product List | Glossary On
Versions: 1 2 3 4 5 6 7 8 9 10 11 12 13 14 15 16 17 18 19 20 21
000
FTUS41 KBOX 242333 AAB
TAFBED
TAF AMD
KBED 242333Z 2500/2524 21008KT P6SM OVC050
     FM250300 23007KT P6SM OVC025
     FM250600 25005KT P6SM BKN008
     FM251000 VRB03KT P6SM VCSH OVC008
     FM251500 01004KT 5SM BR VCSH OVC020
     FM252200 VRB03KT P6SM VCSH OVC200=

USA.gov is the U.S. government's official web portal to all federal, state and local government web resources and services.